1330 UTC 26 May 2015 found at http://aviationweather.gov/adds/metars/
 
METAR text: KAFF 261258Z AUTO VRB05KT 10SM CLR 05/05 A3009 RMK AO2 SLP161 T00500049
Conditions at: KAFF (USAF ACADEMY/COS, CO, US) observed 1258 UTC 26 May 2015
Temperature: 5.0°C (41°F)
Dewpoint: 4.9°C (41°F) [RH = 99%]
Pressure (altimeter): 30.09 inches Hg (1019.0 mb[Sea-level pressure: 1016.1 mb]
Winds: variable direction winds at 6 MPH (5 knots; 2.6 m/s)
Visibility: 10 or more miles (16+ km)
Ceiling: at least 12,000 feet AGL
Clouds: sky clear below 12,000 feet AGL
Weather: automated observation with no human augmentation;
there may or may not be significant weather present at this time

METAR text: KAFF 261158Z AUTO 36006KT 10SM CLR 03/03 A3008 RMK AO2 SLP157 70003 T00300029 10068 20026 53010
Conditions at: KAFF (USAF ACADEMY/COS, CO, US) observed 1158 UTC 26 May 2015
Temperature: 3.0°C (37°F)
Dewpoint: 2.9°C (37°F) [RH = 99%]
Pressure (altimeter): 30.08 inches Hg (1018.7 mb[Sea-level pressure: 1015.7 mb]
Winds: from the N (360 degrees) at 7 MPH (6 knots; 3.1 m/s)
Visibility: 10 or more miles (16+ km)
Ceiling: at least 12,000 feet AGL
Clouds: sky clear below 12,000 feet AGL
Weather: automated observation with no human augmentation;
there may or may not be significant weather present at this time

METAR text: KAFF 261058Z AUTO 34007KT 10SM CLR 04/04 A3006 RMK AO2 SLP144 T00360035
Conditions at: KAFF (USAF ACADEMY/COS, CO, US) observed 1058 UTC 26 May 2015
Temperature: 3.6°C (38°F)
Dewpoint: 3.5°C (38°F) [RH = 99%]
Pressure (altimeter): 30.06 inches Hg (1018.0 mb[Sea-level pressure: 1014.4 mb]
Winds: from the NNW (340 degrees) at 8 MPH (7 knots; 3.6 m/s)
Visibility: 10 or more miles (16+ km)
Ceiling: at least 12,000 feet AGL
Clouds: sky clear below 12,000 feet AGL
Weather: automated observation with no human augmentation;
there may or may not be significant weather present at this time

METAR text: KAFF 260958Z AUTO 36007KT 10SM CLR 04/04 A3004 RMK AO2 SLP137 T00380036
Conditions at: KAFF (USAF ACADEMY/COS, CO, US) observed 0958 UTC 26 May 2015
Temperature: 3.8°C (39°F)
Dewpoint: 3.6°C (38°F) [RH = 99%]
Pressure (altimeter): 30.04 inches Hg (1017.4 mb[Sea-level pressure: 1013.7 mb]
Winds: from the N (360 degrees) at 8 MPH (7 knots; 3.6 m/s)
Visibility: 10 or more miles (16+ km)
Ceiling: at least 12,000 feet AGL
Clouds: sky clear below 12,000 feet AGL
Weather: automated observation with no human augmentation;
there may or may not be significant weather present at this time

METAR text: KAFF 260758Z AUTO 01005KT 10SM CLR 05/05 A3005 RMK AO2 SLP129 T00490047
Conditions at: KAFF (USAF ACADEMY/COS, CO, US) observed 0758 UTC 26 May 2015
Temperature: 4.9°C (41°F)
Dewpoint: 4.7°C (40°F) [RH = 99%]
Pressure (altimeter): 30.05 inches Hg (1017.7 mb[Sea-level pressure: 1012.9 mb]
Winds: from the N (10 degrees) at 6 MPH (5 knots; 2.6 m/s)
Visibility: 10 or more miles (16+ km)
Ceiling: at least 12,000 feet AGL
Clouds: sky clear below 12,000 feet AGL
Weather: automated observation with no human augmentation;
there may or may not be significant weather present at this time

METAR text: KAFF 260558Z AUTO 35003KT 10SM CLR 07/07 A3007 RMK AO2 SLP136 60003 T00700069 10121 20070 51010
Conditions at: KAFF (USAF ACADEMY/COS, CO, US) observed 0558 UTC 26 May 2015
Temperature: 7.0°C (45°F)
Dewpoint: 6.9°C (44°F) [RH = 99%]
Pressure (altimeter): 30.07 inches Hg (1018.4 mb[Sea-level pressure: 1013.6 mb]
Winds: from the N (350 degrees) at 3 MPH (3 knots; 1.6 m/s)
Visibility: 10 or more miles (16+ km)
Ceiling: at least 12,000 feet AGL
Clouds: sky clear below 12,000 feet AGL
Weather: automated observation with no human augmentation;
there may or may not be significant weather present at this time

METAR text: KAFF 260458Z AUTO 35003KT 10SM FEW070 08/07 A3007 RMK AO2 RAE01DZB01E03RAB03E04 SLP136 P0000 T00780068
Conditions at: KAFF (USAF ACADEMY/COS, CO, US) observed 0458 UTC 26 May 2015
Temperature: 7.8°C (46°F)
Dewpoint: 6.8°C (44°F) [RH = 93%]
Pressure (altimeter): 30.07 inches Hg (1018.4 mb[Sea-level pressure: 1013.6 mb]
Winds: from the N (350 degrees) at 3 MPH (3 knots; 1.6 m/s)
Visibility: 10 or more miles (16+ km)
Ceiling: at least 12,000 feet AGL
Clouds: few clouds at 7000 feet AGL
Weather: automated observation with no human augmentation;
there may or may not be significant weather present at this time

METAR text: KAFF 260404Z AUTO 34003KT 10SM FEW027 08/06 A3007 RMK AO2 LTG DSNT SW RAE01DZB01E03RAB03E04
Conditions at: KAFF (USAF ACADEMY/COS, CO, US) observed 0404 UTC 26 May 2015
Temperature: 8.0°C (46°F)
Dewpoint: 6.0°C (43°F) [RH = 87%]
Pressure (altimeter): 30.07 inches Hg (1018.4 mb)
Winds: from the NNW (340 degrees) at 3 MPH (3 knots; 1.6 m/s)
Visibility: 10 or more miles (16+ km)
Ceiling: at least 12,000 feet AGL
Clouds: few clouds at 2700 feet AGL
Weather: automated observation with no human augmentation;
there may or may not be significant weather present at this time

METAR text: KAFF 260358Z AUTO 34005KT 10SM -RA SCT034 08/06 A3006 RMK AO2 LTG DSNT SW RAB15 TSB32E47 SLP133 P0003 T00830063
Conditions at: KAFF (USAF ACADEMY/COS, CO, US) observed 0358 UTC 26 May 2015
Temperature: 8.3°C (47°F)
Dewpoint: 6.3°C (43°F) [RH = 87%]
Pressure (altimeter): 30.06 inches Hg (1018.0 mb[Sea-level pressure: 1013.3 mb]
Winds: from the NNW (340 degrees) at 6 MPH (5 knots; 2.6 m/s)
Visibility: 10 or more miles (16+ km)
Ceiling: at least 12,000 feet AGL
Clouds: scattered clouds at 3400 feet AGL
Weather: -RA  (light rain)

METAR text: KAFF 260357Z AUTO 33004KT 10SM -RA SCT034 08/06 A3006 RMK AO2 LTG DSNT SW RAB15 TSB32E47
Conditions at: KAFF (USAF ACADEMY/COS, CO, US) observed 0357 UTC 26 May 2015
Temperature: 8.0°C (46°F)
Dewpoint: 6.0°C (43°F) [RH = 87%]
Pressure (altimeter): 30.06 inches Hg (1018.0 mb)
Winds: from the NNW (330 degrees) at 5 MPH (4 knots; 2.1 m/s)
Visibility: 10 or more miles (16+ km)
Ceiling: at least 12,000 feet AGL
Clouds: scattered clouds at 3400 feet AGL
Weather: -RA  (light rain)

METAR text: KAFF 260347Z AUTO 33005KT 10SM -RA BKN032 08/07 A3006 RMK AO2 LTG DSNT SW RAB15 TSB32E47
Conditions at: KAFF (USAF ACADEMY/COS, CO, US) observed 0347 UTC 26 May 2015
Temperature: 8.0°C (46°F)
Dewpoint: 7.0°C (45°F) [RH = 93%]
Pressure (altimeter): 30.06 inches Hg (1018.0 mb)
Winds: from the NNW (330 degrees) at 6 MPH (5 knots; 2.6 m/s)
Visibility: 10 or more miles (16+ km)
Ceiling: 3200 feet AGL
Clouds: broken clouds at 3200 feet AGL
Weather: -RA  (light rain)

METAR text: KAFF 260342Z AUTO 33007KT 10SM -TSRA FEW019 OVC033 08/07 A3006 RMK AO2 LTG DSNT NE RAB15 TSB32
Conditions at: KAFF (USAF ACADEMY/COS, CO, US) observed 0342 UTC 26 May 2015
Temperature: 8.0°C (46°F)
Dewpoint: 7.0°C (45°F) [RH = 93%]
Pressure (altimeter): 30.06 inches Hg (1018.0 mb)
Winds: from the NNW (330 degrees) at 8 MPH (7 knots; 3.6 m/s)
Visibility: 10 or more miles (16+ km)
Ceiling: 3300 feet AGL
Clouds: few clouds at 1900 feet AGL
overcast cloud deck at 3300 feet AGL
Weather: -TSRA  (light rain associated with thunderstorm(s))

METAR text: KAFF 260332Z AUTO 33013KT 10SM TSRA FEW019 SCT030 OVC037 09/07 A3006 RMK AO2 LTG DSNT NE RAB15 TSB32
Conditions at: KAFF (USAF ACADEMY/COS, CO, US) observed 0332 UTC 26 May 2015
Temperature: 9.0°C (48°F)
Dewpoint: 7.0°C (45°F) [RH = 87%]
Pressure (altimeter): 30.06 inches Hg (1018.0 mb)
Winds: from the NNW (330 degrees) at 15 MPH (13 knots; 6.8 m/s)
Visibility: 10 or more miles (16+ km)
Ceiling: 3700 feet AGL
Clouds: few clouds at 1900 feet AGL
scattered clouds at 3000 feet AGL
overcast cloud deck at 3700 feet AGL
Weather: TSRA  (rain associated with thunderstorm(s))

METAR text: KAFF 260330Z AUTO 33008KT 10SM RA FEW019 SCT030 OVC037 09/07 A3006 RMK AO2 LTG DSNT NE RAB15
Conditions at: KAFF (USAF ACADEMY/COS, CO, US) observed 0330 UTC 26 May 2015
Temperature: 9.0°C (48°F)
Dewpoint: 7.0°C (45°F) [RH = 87%]
Pressure (altimeter): 30.06 inches Hg (1018.0 mb)
Winds: from the NNW (330 degrees) at 9 MPH (8 knots; 4.2 m/s)
Visibility: 10 or more miles (16+ km)
Ceiling: 3700 feet AGL
Clouds: few clouds at 1900 feet AGL
scattered clouds at 3000 feet AGL
overcast cloud deck at 3700 feet AGL
Weather: RA  (rain)

METAR text: KAFF 260325Z AUTO 34009KT 9SM RA SCT019 BKN033 BKN040 09/07 A3006 RMK AO2 RAB15
Conditions at: KAFF (USAF ACADEMY/COS, CO, US) observed 0325 UTC 26 May 2015
Temperature: 9.0°C (48°F)
Dewpoint: 7.0°C (45°F) [RH = 87%]
Pressure (altimeter): 30.06 inches Hg (1018.0 mb)
Winds: from the NNW (340 degrees) at 10 MPH (9 knots; 4.7 m/s)
Visibility: 9 miles (14 km)
Ceiling: 3300 feet AGL
Clouds: scattered clouds at 1900 feet AGL
broken clouds at 3300 feet AGL
broken clouds at 4000 feet AGL
Weather: RA  (rain)

METAR text: KAFF 260315Z AUTO 35014G18KT 10SM -RA BKN019 10/06 A3005 RMK AO2 RAB15 CIG 019V042 BKN V SCT
Conditions at: KAFF (USAF ACADEMY/COS, CO, US) observed 0315 UTC 26 May 2015
Temperature: 10.0°C (50°F)
Dewpoint: 6.0°C (43°F) [RH = 76%]
Pressure (altimeter): 30.05 inches Hg (1017.7 mb)
Winds: from the N (350 degrees) at 16 MPH (14 knots; 7.3 m/sgusting to 21 MPH (18 knots; 9.4 m/s)
Visibility: 10 or more miles (16+ km)
Ceiling: 1900 feet AGL
Clouds: broken clouds at 1900 feet AGL
Weather: -RA  (light rain)

METAR text: KAFF 260313Z AUTO 35015G18KT 10SM BKN019 BKN042 10/07 A3005 RMK AO2 CIG 019V042 BKN019 V SCT
Conditions at: KAFF (USAF ACADEMY/COS, CO, US) observed 0313 UTC 26 May 2015
Temperature: 10.0°C (50°F)
Dewpoint: 7.0°C (45°F) [RH = 82%]
Pressure (altimeter): 30.05 inches Hg (1017.7 mb)
Winds: from the N (350 degrees) at 17 MPH (15 knots; 7.8 m/sgusting to 21 MPH (18 knots; 9.4 m/s)
Visibility: 10 or more miles (16+ km)
Ceiling: 1900 feet AGL
Clouds: broken clouds at 1900 feet AGL
broken clouds at 4200 feet AGL
Weather: automated observation with no human augmentation;
there may or may not be significant weather present at this time

METAR text: KAFF 260308Z AUTO 35009KT 10SM SCT019 BKN042 10/06 A3004 RMK AO2
Conditions at: KAFF (USAF ACADEMY/COS, CO, US) observed 0308 UTC 26 May 2015
Temperature: 10.0°C (50°F)
Dewpoint: 6.0°C (43°F) [RH = 76%]
Pressure (altimeter): 30.04 inches Hg (1017.4 mb)
Winds: from the N (350 degrees) at 10 MPH (9 knots; 4.7 m/s)
Visibility: 10 or more miles (16+ km)
Ceiling: 4200 feet AGL
Clouds: scattered clouds at 1900 feet AGL
broken clouds at 4200 feet AGL
Weather: automated observation with no human augmentation;
there may or may not be significant weather present at this time

METAR text: KAFF 260303Z AUTO 34004KT 10SM SCT019 10/06 A3004 RMK AO2 LTG DSNT W
Conditions at: KAFF (USAF ACADEMY/COS, CO, US) observed 0303 UTC 26 May 2015
Temperature: 10.0°C (50°F)
Dewpoint: 6.0°C (43°F) [RH = 76%]
Pressure (altimeter): 30.04 inches Hg (1017.4 mb)
Winds: from the NNW (340 degrees) at 5 MPH (4 knots; 2.1 m/s)
Visibility: 10 or more miles (16+ km)
Ceiling: at least 12,000 feet AGL
Clouds: scattered clouds at 1900 feet AGL
Weather: automated observation with no human augmentation;
there may or may not be significant weather present at this time

METAR text: KAFF 260258Z AUTO 04001KT 10SM BKN018 BKN085 10/06 A3003 RMK AO2 LTG DSNT W CIG 018V085 BKN018 V FEW SLP122 53014
Conditions at: KAFF (USAF ACADEMY/COS, CO, US) observed 0258 UTC 26 May 2015
Temperature: 10.0°C (50°F)
Dewpoint: 6.0°C (43°F) [RH = 76%]
Pressure (altimeter): 30.03 inches Hg (1017.0 mb[Sea-level pressure: 1012.2 mb]
Winds: from the NE (40 degrees) at 1 MPH (1 knots; 0.5 m/s)
Visibility: 10 or more miles (16+ km)
Ceiling: 1800 feet AGL
Clouds: broken clouds at 1800 feet AGL
broken clouds at 8500 feet AGL
Weather: automated observation with no human augmentation;
there may or may not be significant weather present at this time

METAR text: KAFF 260158Z AUTO 15006KT 10SM FEW085 10/07 A2999 RMK AO2 SLP113 T01030069
Conditions at: KAFF (USAF ACADEMY/COS, CO, US) observed 0158 UTC 26 May 2015
Temperature: 10.3°C (51°F)
Dewpoint: 6.9°C (44°F) [RH = 79%]
Pressure (altimeter): 29.99 inches Hg (1015.7 mb[Sea-level pressure: 1011.3 mb]
Winds: from the SSE (150 degrees) at 7 MPH (6 knots; 3.1 m/s)
Visibility: 10 or more miles (16+ km)
Ceiling: at least 12,000 feet AGL
Clouds: few clouds at 8500 feet AGL
Weather: automated observation with no human augmentation;
there may or may not be significant weather present at this time

METAR text: KAFF 260133Z AUTO 16008KT 10SM SCT017 BKN085 11/07 A2999 RMK AO2 LTG DSNT N
Conditions at: KAFF (USAF ACADEMY/COS, CO, US) observed 0133 UTC 26 May 2015
Temperature: 11.0°C (52°F)
Dewpoint: 7.0°C (45°F) [RH = 76%]
Pressure (altimeter): 29.99 inches Hg (1015.7 mb)
Winds: from the SSE (160 degrees) at 9 MPH (8 knots; 4.2 m/s)
Visibility: 10 or more miles (16+ km)
Ceiling: 8500 feet AGL
Clouds: scattered clouds at 1700 feet AGL
broken clouds at 8500 feet AGL
Weather: automated observation with no human augmentation;
there may or may not be significant weather present at this time

METAR text: KAFF 260128Z AUTO 16008KT 10SM SCT017 BKN023 BKN085 11/07 A2998 RMK AO2 LTG DSNT N CIG 017V023
Conditions at: KAFF (USAF ACADEMY/COS, CO, US) observed 0128 UTC 26 May 2015
Temperature: 11.0°C (52°F)
Dewpoint: 7.0°C (45°F) [RH = 76%]
Pressure (altimeter): 29.98 inches Hg (1015.3 mb)
Winds: from the SSE (160 degrees) at 9 MPH (8 knots; 4.2 m/s)
Visibility: 10 or more miles (16+ km)
Ceiling: 2300 feet AGL
Clouds: scattered clouds at 1700 feet AGL
broken clouds at 2300 feet AGL
broken clouds at 8500 feet AGL
Weather: automated observation with no human augmentation;
there may or may not be significant weather present at this time

METAR text: KAFF 260118Z AUTO 16010KT 10SM BKN017 BKN024 11/07 A2998 RMK AO2 LTG DSNT N CIG 017V024 BKN017 V SCT
Conditions at: KAFF (USAF ACADEMY/COS, CO, US) observed 0118 UTC 26 May 2015
Temperature: 11.0°C (52°F)
Dewpoint: 7.0°C (45°F) [RH = 76%]
Pressure (altimeter): 29.98 inches Hg (1015.3 mb)
Winds: from the SSE (160 degrees) at 12 MPH (10 knots; 5.2 m/s)
Visibility: 10 or more miles (16+ km)
Ceiling: 1700 feet AGL
Clouds: broken clouds at 1700 feet AGL
broken clouds at 2400 feet AGL
Weather: automated observation with no human augmentation;
there may or may not be significant weather present at this time

METAR text: KAFF 260103Z AUTO 17010KT 10SM BKN023 11/07 A2999 RMK AO2
Conditions at: KAFF (USAF ACADEMY/COS, CO, US) observed 0103 UTC 26 May 2015
Temperature: 11.0°C (52°F)
Dewpoint: 7.0°C (45°F) [RH = 76%]
Pressure (altimeter): 29.99 inches Hg (1015.7 mb)
Winds: from the S (170 degrees) at 12 MPH (10 knots; 5.2 m/s)
Visibility: 10 or more miles (16+ km)
Ceiling: 2300 feet AGL
Clouds: broken clouds at 2300 feet AGL
Weather: automated observation with no human augmentation;
there may or may not be significant weather present at this time

METAR text: KAFF 260058Z AUTO 17009KT 10SM FEW018 BKN025 11/07 A2998 RMK AO2 BKN V SCT SLP110 T01120070
Conditions at: KAFF (USAF ACADEMY/COS, CO, US) observed 0058 UTC 26 May 2015
Temperature: 11.2°C (52°F)
Dewpoint: 7.0°C (45°F) [RH = 75%]
Pressure (altimeter): 29.98 inches Hg (1015.3 mb[Sea-level pressure: 1011.0 mb]
Winds: from the S (170 degrees) at 10 MPH (9 knots; 4.7 m/s)
Visibility: 10 or more miles (16+ km)
Ceiling: 2500 feet AGL
Clouds: few clouds at 1800 feet AGL
broken clouds at 2500 feet AGL
Weather: automated observation with no human augmentation;
there may or may not be significant weather present at this time

METAR text: KAFF 260053Z AUTO 17009KT 10SM BKN025 11/07 A2999 RMK AO2 BKN V SCT
Conditions at: KAFF (USAF ACADEMY/COS, CO, US) observed 0053 UTC 26 May 2015
Temperature: 11.0°C (52°F)
Dewpoint: 7.0°C (45°F) [RH = 76%]
Pressure (altimeter): 29.99 inches Hg (1015.7 mb)
Winds: from the S (170 degrees) at 10 MPH (9 knots; 4.7 m/s)
Visibility: 10 or more miles (16+ km)
Ceiling: 2500 feet AGL
Clouds: broken clouds at 2500 feet AGL
Weather: automated observation with no human augmentation;
there may or may not be significant weather present at this time

METAR text: KAFF 252358Z AUTO 17010KT 10SM FEW120 13/06 A2998 RMK AO2 SLP116 T01260058 10167 20120 52012
Conditions at: KAFF (USAF ACADEMY/COS, CO, US) observed 2358 UTC 25 May 2015
Temperature: 12.6°C (55°F)
Dewpoint: 5.8°C (42°F) [RH = 63%]
Pressure (altimeter): 29.98 inches Hg (1015.3 mb[Sea-level pressure: 1011.6 mb]
Winds: from the S (170 degrees) at 12 MPH (10 knots; 5.2 m/s)
Visibility: 10 or more miles (16+ km)
Ceiling: at least 12,000 feet AGL
Clouds: few clouds at 12000 feet AGL
Weather: automated observation with no human augmentation;
there may or may not be significant weather present at this time

METAR text: KAFF 252258Z AUTO 12013KT 100V160 10SM SCT050 14/04 A2997 RMK AO2 LTG DSNT SE TSB2159E13 SLP101 T01400043
Conditions at: KAFF (USAF ACADEMY/COS, CO, US) observed 2258 UTC 25 May 2015
Temperature: 14.0°C (57°F)
Dewpoint: 4.3°C (40°F) [RH = 52%]
Pressure (altimeter): 29.97 inches Hg (1015.0 mb[Sea-level pressure: 1010.1 mb]
Winds: from the ESE (120 degrees) at 15 MPH (13 knots; 6.8 m/s)
Visibility: 10 or more miles (16+ km)
Ceiling: at least 12,000 feet AGL
Clouds: scattered clouds at 5000 feet AGL
Weather: automated observation with no human augmentation;
there may or may not be significant weather present at this time

METAR text: KAFF 252213Z AUTO 07014KT 10SM FEW050 SCT080 14/04 A2995 RMK AO2 TSB2159E13
Conditions at: KAFF (USAF ACADEMY/COS, CO, US) observed 2213 UTC 25 May 2015
Temperature: 14.0°C (57°F)
Dewpoint: 4.0°C (39°F) [RH = 51%]
Pressure (altimeter): 29.95 inches Hg (1014.3 mb)
Winds: from the ENE (70 degrees) at 16 MPH (14 knots; 7.3 m/s)
Visibility: 10 or more miles (16+ km)
Ceiling: at least 12,000 feet AGL
Clouds: few clouds at 5000 feet AGL
scattered clouds at 8000 feet AGL
Weather: automated observation with no human augmentation;
there may or may not be significant weather present at this time

METAR text: KAFF 252159Z AUTO 05016KT 10SM TS SCT050 SCT080 14/03 A2994 RMK AO2 TSB59
Conditions at: KAFF (USAF ACADEMY/COS, CO, US) observed 2159 UTC 25 May 2015
Temperature: 14.0°C (57°F)
Dewpoint: 3.0°C (37°F) [RH = 47%]
Pressure (altimeter): 29.94 inches Hg (1014.0 mb)
Winds: from the NE (50 degrees) at 18 MPH (16 knots; 8.3 m/s)
Visibility: 10 or more miles (16+ km)
Ceiling: at least 12,000 feet AGL
Clouds: scattered clouds at 5000 feet AGL
scattered clouds at 8000 feet AGL
Weather: TS  (thunderstorm)

METAR text: KAFF 252158Z AUTO 05015KT 10SM SCT050 SCT080 14/03 A2994 RMK AO2 TSB03E18 SLP090 T01430030
Conditions at: KAFF (USAF ACADEMY/COS, CO, US) observed 2158 UTC 25 May 2015
Temperature: 14.3°C (58°F)
Dewpoint: 3.0°C (37°F) [RH = 46%]
Pressure (altimeter): 29.94 inches Hg (1014.0 mb[Sea-level pressure: 1009.0 mb]
Winds: from the NE (50 degrees) at 17 MPH (15 knots; 7.8 m/s)
Visibility: 10 or more miles (16+ km)
Ceiling: at least 12,000 feet AGL
Clouds: scattered clouds at 5000 feet AGL
scattered clouds at 8000 feet AGL
Weather: automated observation with no human augmentation;
there may or may not be significant weather present at this time

METAR text: KAFF 252118Z AUTO 09014KT 10SM VCTS SCT055 17/04 A2994 RMK AO2 LTG DSNT N AND SW TSB03E18
Conditions at: KAFF (USAF ACADEMY/COS, CO, US) observed 2118 UTC 25 May 2015
Temperature: 17.0°C (63°F)
Dewpoint: 4.0°C (39°F) [RH = 42%]
Pressure (altimeter): 29.94 inches Hg (1014.0 mb)
Winds: from the E (90 degrees) at 16 MPH (14 knots; 7.3 m/s)
Visibility: 10 or more miles (16+ km)
Ceiling: at least 12,000 feet AGL
Clouds: scattered clouds at 5500 feet AGL
Weather: VCTS  (thunderstorm in vicinity)

METAR text: KAFF 252103Z AUTO VRB05KT 10SM TS FEW055 SCT170 SCT190 15/03 A2993 RMK AO2 LTG DSNT N-NE AND S TSB03
Conditions at: KAFF (USAF ACADEMY/COS, CO, US) observed 2103 UTC 25 May 2015
Temperature: 15.0°C (59°F)
Dewpoint: 3.0°C (37°F) [RH = 44%]
Pressure (altimeter): 29.93 inches Hg (1013.6 mb)
Winds: variable direction winds at 6 MPH (5 knots; 2.6 m/s)
Visibility: 10 or more miles (16+ km)
Ceiling: at least 12,000 feet AGL
Clouds: few clouds at 5500 feet AGL
scattered clouds at 17000 feet AGL
scattered clouds at 19000 feet AGL
Weather: TS  (thunderstorm)

METAR text: KAFF 252058Z AUTO 17006KT 10SM VCTS FEW055 16/03 A2993 RMK AO2 LTG DSNT N-NE SLP087 T01570033 53001
Conditions at: KAFF (USAF ACADEMY/COS, CO, US) observed 2058 UTC 25 May 2015
Temperature: 15.7°C (60°F)
Dewpoint: 3.3°C (38°F) [RH = 43%]
Pressure (altimeter): 29.93 inches Hg (1013.6 mb[Sea-level pressure: 1008.7 mb]
Winds: from the S (170 degrees) at 7 MPH (6 knots; 3.1 m/s)
Visibility: 10 or more miles (16+ km)
Ceiling: at least 12,000 feet AGL
Clouds: few clouds at 5500 feet AGL
Weather: VCTS  (thunderstorm in vicinity)

METAR text: KAFF 251958Z AUTO 14006KT 10SM SCT070 SCT100 SCT160 16/03 A2994 RMK AO2 SLP090 T01560034
Conditions at: KAFF (USAF ACADEMY/COS, CO, US) observed 1958 UTC 25 May 2015
Temperature: 15.6°C (60°F)
Dewpoint: 3.4°C (38°F) [RH = 44%]
Pressure (altimeter): 29.94 inches Hg (1014.0 mb[Sea-level pressure: 1009.0 mb]
Winds: from the SE (140 degrees) at 7 MPH (6 knots; 3.1 m/s)
Visibility: 10 or more miles (16+ km)
Ceiling: at least 12,000 feet AGL
Clouds: scattered clouds at 7000 feet AGL
scattered clouds at 10000 feet AGL
scattered clouds at 16000 feet AGL
Weather: automated observation with no human augmentation;
there may or may not be significant weather present at this time

METAR text: KAFF 251858Z AUTO 20004KT 10SM FEW065 SCT130 SCT160 BKN200 15/02 A2992 RMK AO2 SLP088 T01510016
Conditions at: KAFF (USAF ACADEMY/COS, CO, US) observed 1858 UTC 25 May 2015
Temperature: 15.1°C (59°F)
Dewpoint: 1.6°C (35°F) [RH = 40%]
Pressure (altimeter): 29.92 inches Hg (1013.3 mb[Sea-level pressure: 1008.8 mb]
Winds: from the SSW (200 degrees) at 5 MPH (4 knots; 2.1 m/s)
Visibility: 10 or more miles (16+ km)
Ceiling: 20000 feet AGL
Clouds: few clouds at 6500 feet AGL
scattered clouds at 13000 feet AGL
scattered clouds at 16000 feet AGL
broken clouds at 20000 feet AGL
Weather: automated observation with no human augmentation;
there may or may not be significant weather present at this time

METAR text: KAFF 251758Z AUTO 21004KT 10SM FEW075 SCT170 SCT200 15/04 A2993 RMK AO2 SLP092 T01510037 10152 20062 58002
Conditions at: KAFF (USAF ACADEMY/COS, CO, US) observed 1758 UTC 25 May 2015
Temperature: 15.1°C (59°F)
Dewpoint: 3.7°C (39°F) [RH = 46%]
Pressure (altimeter): 29.93 inches Hg (1013.6 mb[Sea-level pressure: 1009.2 mb]
Winds: from the SSW (210 degrees) at 5 MPH (4 knots; 2.1 m/s)
Visibility: 10 or more miles (16+ km)
Ceiling: at least 12,000 feet AGL
Clouds: few clouds at 7500 feet AGL
scattered clouds at 17000 feet AGL
scattered clouds at 20000 feet AGL
Weather: automated observation with no human augmentation;
there may or may not be significant weather present at this time

METAR text: KAFF 251658Z AUTO VRB04KT 10SM FEW070 SCT200 14/01 A2993 RMK AO2 SLP092 T01440006
Conditions at: KAFF (USAF ACADEMY/COS, CO, US) observed 1658 UTC 25 May 2015
Temperature: 14.4°C (58°F)
Dewpoint: 0.6°C (33°F) [RH = 39%]
Pressure (altimeter): 29.93 inches Hg (1013.6 mb[Sea-level pressure: 1009.2 mb]
Winds: variable direction winds at 5 MPH (4 knots; 2.1 m/s)
Visibility: 10 or more miles (16+ km)
Ceiling: at least 12,000 feet AGL
Clouds: few clouds at 7000 feet AGL
scattered clouds at 20000 feet AGL
Weather: automated observation with no human augmentation;
there may or may not be significant weather present at this time

METAR text: KAFF 251558Z AUTO 19003KT 10SM FEW055 SCT210 13/01 A2994 RMK AO2 SLP090 T01340014
Conditions at: KAFF (USAF ACADEMY/COS, CO, US) observed 1558 UTC 25 May 2015
Temperature: 13.4°C (56°F)
Dewpoint: 1.4°C (35°F) [RH = 44%]
Pressure (altimeter): 29.94 inches Hg (1014.0 mb[Sea-level pressure: 1009.0 mb]
Winds: from the S (190 degrees) at 3 MPH (3 knots; 1.6 m/s)
Visibility: 10 or more miles (16+ km)
Ceiling: at least 12,000 feet AGL
Clouds: few clouds at 5500 feet AGL
scattered clouds at 21000 feet AGL
Weather: automated observation with no human augmentation;
there may or may not be significant weather present at this time

METAR text: KAFF 251458Z AUTO 08003KT 10SM CLR 12/02 A2994 RMK AO2 SLP090 T01190022 50010
Conditions at: KAFF (USAF ACADEMY/COS, CO, US) observed 1458 UTC 25 May 2015
Temperature: 11.9°C (53°F)
Dewpoint: 2.2°C (36°F) [RH = 51%]
Pressure (altimeter): 29.94 inches Hg (1014.0 mb[Sea-level pressure: 1009.0 mb]
Winds: from the E (80 degrees) at 3 MPH (3 knots; 1.6 m/s)
Visibility: 10 or more miles (16+ km)
Ceiling: at least 12,000 feet AGL
Clouds: sky clear below 12,000 feet AGL
Weather: automated observation with no human augmentation;
there may or may not be significant weather present at this time

METAR text: KAFF 251358Z AUTO 03007KT 10SM CLR 10/02 A2994 RMK AO2 SLP095 T01000023
Conditions at: KAFF (USAF ACADEMY/COS, CO, US) observed 1358 UTC 25 May 2015
Temperature: 10.0°C (50°F)
Dewpoint: 2.3°C (36°F) [RH = 59%]
Pressure (altimeter): 29.94 inches Hg (1014.0 mb[Sea-level pressure: 1009.5 mb]
Winds: from the NNE (30 degrees) at 8 MPH (7 knots; 3.6 m/s)
Visibility: 10 or more miles (16+ km)
Ceiling: at least 12,000 feet AGL
Clouds: sky clear below 12,000 feet AGL
Weather: automated observation with no human augmentation;
there may or may not be significant weather present at this time

METAR text: KAFF 251258Z AUTO 36007KT 10SM FEW080 09/02 A2993 RMK AO2 SLP092 T00910023
Conditions at: KAFF (USAF ACADEMY/COS, CO, US) observed 1258 UTC 25 May 2015
Temperature: 9.1°C (48°F)
Dewpoint: 2.3°C (36°F) [RH = 62%]
Pressure (altimeter): 29.93 inches Hg (1013.6 mb[Sea-level pressure: 1009.2 mb]
Winds: from the N (360 degrees) at 8 MPH (7 knots; 3.6 m/s)
Visibility: 10 or more miles (16+ km)
Ceiling: at least 12,000 feet AGL
Clouds: few clouds at 8000 feet AGL
Weather: automated observation with no human augmentation;
there may or may not be significant weather present at this time

METAR text: KAFF 251158Z AUTO 02005KT 10SM FEW080 06/02 A2990 RMK AO2 SLP087 60000 T00640019 10076 20049 50000
Conditions at: KAFF (USAF ACADEMY/COS, CO, US) observed 1158 UTC 25 May 2015
Temperature: 6.4°C (44°F)
Dewpoint: 1.9°C (35°F) [RH = 73%]
Pressure (altimeter): 29.90 inches Hg (1012.6 mb[Sea-level pressure: 1008.7 mb]
Winds: from the NNE (20 degrees) at 6 MPH (5 knots; 2.6 m/s)
Visibility: 10 or more miles (16+ km)
Ceiling: at least 12,000 feet AGL
Clouds: few clouds at 8000 feet AGL
Weather: automated observation with no human augmentation;
there may or may not be significant weather present at this time

METAR text: KAFF 251058Z AUTO 30004KT 10SM FEW080 08/03 A2989 RMK AO2 DZB23E38 SLP084 P0000 T00750025
Conditions at: KAFF (USAF ACADEMY/COS, CO, US) observed 1058 UTC 25 May 2015
Temperature: 7.5°C (46°F)
Dewpoint: 2.5°C (36°F) [RH = 71%]
Pressure (altimeter): 29.89 inches Hg (1012.3 mb[Sea-level pressure: 1008.4 mb]
Winds: from the WNW (300 degrees) at 5 MPH (4 knots; 2.1 m/s)
Visibility: 10 or more miles (16+ km)
Ceiling: at least 12,000 feet AGL
Clouds: few clouds at 8000 feet AGL
Weather: automated observation with no human augmentation;
there may or may not be significant weather present at this time

METAR text: KAFF 251038Z AUTO 34008KT 10SM FEW019 07/04 A2990 RMK AO2 DZB23E38
Conditions at: KAFF (USAF ACADEMY/COS, CO, US) observed 1038 UTC 25 May 2015
Temperature: 7.0°C (45°F)
Dewpoint: 4.0°C (39°F) [RH = 81%]
Pressure (altimeter): 29.90 inches Hg (1012.6 mb)
Winds: from the NNW (340 degrees) at 9 MPH (8 knots; 4.2 m/s)
Visibility: 10 or more miles (16+ km)
Ceiling: at least 12,000 feet AGL
Clouds: few clouds at 1900 feet AGL
Weather: automated observation with no human augmentation;
there may or may not be significant weather present at this time

METAR text: KAFF 251024Z AUTO 05007KT 10SM -DZ FEW023 07/03 A2990 RMK AO2 DZB23
Conditions at: KAFF (USAF ACADEMY/COS, CO, US) observed 1024 UTC 25 May 2015
Temperature: 7.0°C (45°F)
Dewpoint: 3.0°C (37°F) [RH = 76%]
Pressure (altimeter): 29.90 inches Hg (1012.6 mb)
Winds: from the NE (50 degrees) at 8 MPH (7 knots; 3.6 m/s)
Visibility: 10 or more miles (16+ km)
Ceiling: at least 12,000 feet AGL
Clouds: few clouds at 2300 feet AGL
Weather: -DZ  (light drizzle)

METAR text: KAFF 250958Z AUTO 32003KT 10SM FEW060 07/03 A2991 RMK AO2 SLP097 T00660033
Conditions at: KAFF (USAF ACADEMY/COS, CO, US) observed 0958 UTC 25 May 2015
Temperature: 6.6°C (44°F)
Dewpoint: 3.3°C (38°F) [RH = 79%]
Pressure (altimeter): 29.91 inches Hg (1013.0 mb[Sea-level pressure: 1009.7 mb]
Winds: from the NW (320 degrees) at 3 MPH (3 knots; 1.6 m/s)
Visibility: 10 or more miles (16+ km)
Ceiling: at least 12,000 feet AGL
Clouds: few clouds at 6000 feet AGL
Weather: automated observation with no human augmentation;
there may or may not be significant weather present at this time

METAR text: KAFF 250858Z AUTO 33007KT 10SM SCT060 06/04 A2990 RMK AO2 SLP087 T00630040 57006
Conditions at: KAFF (USAF ACADEMY/COS, CO, US) observed 0858 UTC 25 May 2015
Temperature: 6.3°C (43°F)
Dewpoint: 4.0°C (39°F) [RH = 85%]
Pressure (altimeter): 29.90 inches Hg (1012.6 mb[Sea-level pressure: 1008.7 mb]
Winds: from the NNW (330 degrees) at 8 MPH (7 knots; 3.6 m/s)
Visibility: 10 or more miles (16+ km)
Ceiling: at least 12,000 feet AGL
Clouds: scattered clouds at 6000 feet AGL
Weather: automated observation with no human augmentation;
there may or may not be significant weather present at this time

METAR text: KAFF 250758Z AUTO 34007KT 10SM OVC070 07/05 A2990 RMK AO2 SLP087 T00650045
Conditions at: KAFF (USAF ACADEMY/COS, CO, US) observed 0758 UTC 25 May 2015
Temperature: 6.5°C (44°F)
Dewpoint: 4.5°C (40°F) [RH = 87%]
Pressure (altimeter): 29.90 inches Hg (1012.6 mb[Sea-level pressure: 1008.7 mb]
Winds: from the NNW (340 degrees) at 8 MPH (7 knots; 3.6 m/s)
Visibility: 10 or more miles (16+ km)
Ceiling: 7000 feet AGL
Clouds: overcast cloud deck at 7000 feet AGL
Weather: automated observation with no human augmentation;
there may or may not be significant weather present at this time

METAR text: KAFF 250658Z AUTO 36009KT 10SM CLR 05/04 A2991 RMK AO2 SLP097 T00510042 401190011
Conditions at: KAFF (USAF ACADEMY/COS, CO, US) observed 0658 UTC 25 May 2015
Temperature: 5.1°C (41°F)
Dewpoint: 4.2°C (40°F) [RH = 94%]
Pressure (altimeter): 29.91 inches Hg (1013.0 mb[Sea-level pressure: 1009.7 mb]
Winds: from the N (360 degrees) at 10 MPH (9 knots; 4.7 m/s)
Visibility: 10 or more miles (16+ km)
Ceiling: at least 12,000 feet AGL
Clouds: sky clear below 12,000 feet AGL
Weather: automated observation with no human augmentation;
there may or may not be significant weather present at this time

METAR text: KAFF 250558Z AUTO 36007KT 10SM FEW070 05/04 A2992 RMK AO2 SLP101 T00510042 10118 20049 52010
Conditions at: KAFF (USAF ACADEMY/COS, CO, US) observed 0558 UTC 25 May 2015
Temperature: 5.1°C (41°F)
Dewpoint: 4.2°C (40°F) [RH = 94%]
Pressure (altimeter): 29.92 inches Hg (1013.3 mb[Sea-level pressure: 1010.1 mb]
Winds: from the N (360 degrees) at 8 MPH (7 knots; 3.6 m/s)
Visibility: 10 or more miles (16+ km)
Ceiling: at least 12,000 feet AGL
Clouds: few clouds at 7000 feet AGL
Weather: automated observation with no human augmentation;
there may or may not be significant weather present at this time

METAR text: KAFF 250458Z AUTO 34004KT 10SM SCT100 06/05 A2992 RMK AO2 SLP101 T00640045
Conditions at: KAFF (USAF ACADEMY/COS, CO, US) observed 0458 UTC 25 May 2015
Temperature: 6.4°C (44°F)
Dewpoint: 4.5°C (40°F) [RH = 88%]
Pressure (altimeter): 29.92 inches Hg (1013.3 mb[Sea-level pressure: 1010.1 mb]
Winds: from the NNW (340 degrees) at 5 MPH (4 knots; 2.1 m/s)
Visibility: 10 or more miles (16+ km)
Ceiling: at least 12,000 feet AGL
Clouds: scattered clouds at 10000 feet AGL
Weather: automated observation with no human augmentation;
there may or may not be significant weather present at this time

METAR text: KAFF 250358Z AUTO 36006KT 10SM SCT080 08/05 A2990 RMK AO2 SLP087 T00750047
Conditions at: KAFF (USAF ACADEMY/COS, CO, US) observed 0358 UTC 25 May 2015
Temperature: 7.5°C (46°F)
Dewpoint: 4.7°C (40°F) [RH = 82%]
Pressure (altimeter): 29.90 inches Hg (1012.6 mb[Sea-level pressure: 1008.7 mb]
Winds: from the N (360 degrees) at 7 MPH (6 knots; 3.1 m/s)
Visibility: 10 or more miles (16+ km)
Ceiling: at least 12,000 feet AGL
Clouds: scattered clouds at 8000 feet AGL
Weather: automated observation with no human augmentation;
there may or may not be significant weather present at this time

METAR text: KAFF 250258Z AUTO 29003KT 10SM CLR 09/04 A2989 RMK AO2 SLP084 T00890044 52012
Conditions at: KAFF (USAF ACADEMY/COS, CO, US) observed 0258 UTC 25 May 2015
Temperature: 8.9°C (48°F)
Dewpoint: 4.4°C (40°F) [RH = 73%]
Pressure (altimeter): 29.89 inches Hg (1012.3 mb[Sea-level pressure: 1008.4 mb]
Winds: from the WNW (290 degrees) at 3 MPH (3 knots; 1.6 m/s)
Visibility: 10 or more miles (16+ km)
Ceiling: at least 12,000 feet AGL
Clouds: sky clear below 12,000 feet AGL
Weather: automated observation with no human augmentation;
there may or may not be significant weather present at this time

METAR text: KAFF 250158Z AUTO 34005KT 10SM CLR 09/05 A2987 RMK AO2 SLP083 T00910052
Conditions at: KAFF (USAF ACADEMY/COS, CO, US) observed 0158 UTC 25 May 2015
Temperature: 9.1°C (48°F)
Dewpoint: 5.2°C (41°F) [RH = 77%]
Pressure (altimeter): 29.87 inches Hg (1011.6 mb[Sea-level pressure: 1008.3 mb]
Winds: from the NNW (340 degrees) at 6 MPH (5 knots; 2.6 m/s)
Visibility: 10 or more miles (16+ km)
Ceiling: at least 12,000 feet AGL
Clouds: sky clear below 12,000 feet AGL
Weather: automated observation with no human augmentation;
there may or may not be significant weather present at this time